createdAt,value
2019-05-01T00:03:22.428Z,9.5
2019-05-01T00:08:27.628Z,9.2
2019-05-01T00:13:32.644Z,9.9
2019-05-01T00:18:37.857Z,8.9
2019-05-01T00:23:42.743Z,8.7
2019-05-01T00:28:48.036Z,8.9
2019-05-01T00:33:52.963Z,8.4
2019-05-01T00:38:58.033Z,8
2019-05-01T00:44:03.171Z,7.9
2019-05-01T00:49:07.051Z,7
2019-05-01T00:54:12.269Z,6.2
2019-05-01T00:59:17.566Z,5.8
2019-05-01T01:04:22.553Z,5.7
2019-05-01T01:09:27.756Z,5.2
2019-05-01T01:14:32.848Z,5
2019-05-01T01:19:38.127Z,4.5
2019-05-01T01:24:43.161Z,4.7
2019-05-01T01:29:48.210Z,4.4
2019-05-01T01:34:53.391Z,4.8
2019-05-01T01:39:58.610Z,5.4
2019-05-01T01:45:03.625Z,6.6
2019-05-01T01:50:08.850Z,7.4
2019-05-01T01:55:13.972Z,7.7
2019-05-01T02:00:19.124Z,7.2
2019-05-01T02:05:24.151Z,7.6
2019-05-01T02:10:43.471Z,7.5
2019-05-01T02:15:38.800Z,6.9
2019-05-01T02:20:43.765Z,6.8
2019-05-01T02:25:48.768Z,6.4
2019-05-01T02:30:54.022Z,5.8
2019-05-01T02:35:59.111Z,5.5
2019-05-01T02:41:04.222Z,5.5
2019-05-01T02:46:09.171Z,5.2
2019-05-01T02:51:14.488Z,5.5
2019-05-01T02:56:19.366Z,5.2
2019-05-01T03:01:24.407Z,5.4
2019-05-01T03:06:29.569Z,5.8
2019-05-01T03:11:34.817Z,5.7
2019-05-01T03:16:39.885Z,5.9
2019-05-01T03:21:45.063Z,5.9
2019-05-01T03:26:50.120Z,6.7
2019-05-01T03:32:19.653Z,7
2019-05-01T03:36:55.177Z,7.5
2019-05-01T03:42:00.199Z,7.4
2019-05-01T03:47:05.133Z,7.9
2019-05-01T03:52:10.272Z,8
2019-05-01T03:57:15.371Z,8.7
2019-05-01T04:02:34.850Z,9
2019-05-01T04:07:30.213Z,9.2
2019-05-01T04:12:39.751Z,9.4
2019-05-01T04:17:44.854Z,9.5
2019-05-01T04:22:49.965Z,9.5
2019-05-01T04:27:58.357Z,10.8
2019-05-01T04:33:04.093Z,10.1
2019-05-01T04:38:09.120Z,10.4
2019-05-01T04:43:14.199Z,10.7
2019-05-01T04:48:19.279Z,10.7
2019-05-01T04:53:24.578Z,10
2019-05-01T04:58:29.598Z,9.9
2019-05-01T05:03:37.411Z,9.1
2019-05-01T05:08:42.397Z,9.1
2019-05-01T05:13:47.974Z,8.9
2019-05-01T05:18:55.718Z,8.8
2019-05-01T05:24:01.071Z,9.1
2019-05-01T05:29:08.187Z,8.6
2019-05-01T05:34:13.432Z,8.9
2019-05-01T05:39:21.666Z,9.2
2019-05-01T05:44:27.137Z,8.6
2019-05-01T05:49:32.225Z,8.4
2019-05-01T05:54:37.332Z,8.5
2019-05-01T05:59:45.081Z,8.5
2019-05-01T06:04:50.387Z,8.9
2019-05-01T06:09:55.270Z,8.8
2019-05-01T06:15:07.581Z,8.8
2019-05-01T06:20:03.204Z,9.1
2019-05-01T06:25:20.769Z,8.6
2019-05-01T06:30:12.609Z,8.7
2019-05-01T06:35:16.231Z,8.4
2019-05-01T06:40:23.644Z,8.5
2019-05-01T06:45:29.105Z,8.2
2019-05-01T06:50:41.453Z,8
2019-05-01T06:55:37.185Z,8.2
2019-05-01T07:00:44.293Z,7.7
2019-05-01T07:05:56.256Z,7.9
2019-05-01T07:10:51.476Z,7.3
2019-05-01T07:16:03.237Z,7.8
2019-05-01T07:20:58.717Z,7.5
2019-05-01T07:26:03.772Z,7.9
2019-05-01T07:31:09.030Z,8.1
2019-05-01T07:36:17.127Z,7.1
2019-05-01T07:41:33.875Z,7.4
2019-05-01T07:46:23.374Z,8.1
2019-05-01T07:56:44.987Z,7.8
2019-05-01T08:12:03.247Z,7.4
2019-05-01T08:21:47.310Z,6.8
2019-05-01T08:26:52.195Z,6.8
2019-05-01T08:32:03.376Z,6.8
2019-05-01T08:37:07.304Z,6.7
2019-05-01T08:42:12.980Z,6.5
2019-05-01T08:47:25.709Z,5.9
2019-05-01T08:52:27.715Z,5.4
2019-05-01T08:57:57.902Z,5.7
2019-05-01T09:33:42.839Z,5.5
2019-05-01T09:38:50.966Z,5.7
2019-05-01T09:43:56.530Z,5.9
2019-05-01T09:49:02.247Z,6.1
2019-05-01T09:54:09.730Z,6.5
2019-05-01T09:59:05.509Z,6.2
2019-05-01T10:04:10.316Z,5.7
2019-05-01T10:09:18.836Z,6.8
2019-05-01T10:14:24.241Z,6.6
2019-05-01T10:19:32.197Z,6
2019-05-01T10:24:39.383Z,5.1
2019-05-01T10:29:45.055Z,6.1
2019-05-01T10:34:48.522Z,5.8
2019-05-01T10:39:55.402Z,5.6
2019-05-01T10:45:00.919Z,5.2
2019-05-01T10:50:06.178Z,5.6
2019-05-01T10:55:11.125Z,6.7
2019-05-01T11:00:16.349Z,5.9
2019-05-01T11:05:21.507Z,8.9
2019-05-01T11:10:26.797Z,9.6
2019-05-01T11:15:35.351Z,10.5
2019-05-01T11:20:39.429Z,10.3
2019-05-01T11:25:45.529Z,10.5
2019-05-01T11:30:50.856Z,8.5
2019-05-01T11:36:08.430Z,9.1
2019-05-01T11:41:01.652Z,8.9
2019-05-01T11:46:05.517Z,9.7
2019-05-01T11:51:11.007Z,9.6
2019-05-01T11:56:16.428Z,8.4
2019-05-01T12:01:21.775Z,9
2019-05-01T12:06:25.522Z,9.1
2019-05-01T12:11:26.045Z,9
2019-05-01T12:16:30.989Z,9
2019-05-01T12:21:36.696Z,9.5
2019-05-01T12:26:41.829Z,9.6
2019-05-01T12:31:46.996Z,9
2019-05-01T12:36:52.486Z,8.9
2019-05-01T12:41:57.854Z,9.4
2019-05-01T12:47:04.492Z,9
2019-05-01T12:52:12.576Z,8.9
2019-05-01T12:57:17.634Z,9.6
2019-05-01T13:02:22.987Z,9.5
2019-05-01T13:07:30.192Z,9.2
2019-05-01T13:12:35.670Z,9.2
2019-05-01T13:17:40.700Z,8.6
2019-05-01T13:22:46.168Z,8.5
2019-05-01T13:27:51.140Z,8.3
2019-05-01T13:32:56.372Z,8.6
2019-05-01T13:38:01.495Z,8.1
2019-05-01T13:43:07.111Z,7.5
2019-05-01T13:48:12.600Z,7.5
2019-05-01T13:53:17.863Z,7.9
2019-05-01T13:58:22.764Z,7.8
2019-05-01T14:03:28.418Z,7.8
2019-05-01T14:08:33.606Z,7.5
2019-05-01T14:13:40.919Z,7.5
2019-05-01T14:18:46.260Z,6.7
2019-05-01T14:23:51.778Z,6.9
2019-05-01T14:28:56.944Z,7
2019-05-01T14:34:02.081Z,6.7
2019-05-01T14:39:07.193Z,6.6
2019-05-01T14:44:12.266Z,6.2
2019-05-01T14:49:17.227Z,6.4
2019-05-01T14:54:22.604Z,6.3
2019-05-01T14:59:27.865Z,5.8
2019-05-01T15:04:32.924Z,6.1
2019-05-01T15:09:38.000Z,6.5
2019-05-01T15:14:43.300Z,7.1
2019-05-01T15:19:48.485Z,6.2
2019-05-01T15:24:53.695Z,6.1
2019-05-01T15:29:58.693Z,5.8
2019-05-01T15:35:02.596Z,6
2019-05-01T15:40:06.215Z,5.9
2019-05-01T15:45:12.723Z,6.3
2019-05-01T15:50:14.075Z,5.4
2019-05-01T15:55:18.979Z,5.8
2019-05-01T16:00:24.241Z,5.6
2019-05-01T16:05:29.367Z,5.7
2019-05-01T16:10:34.472Z,6.3
2019-05-01T16:15:39.764Z,5.7
2019-05-01T16:20:45.008Z,6.2
2019-05-01T16:25:52.787Z,5.9
2019-05-01T16:30:57.808Z,6.2
2019-05-01T16:36:03.090Z,6.3
2019-05-01T16:41:08.215Z,6.3
2019-05-01T16:46:13.333Z,6.1
2019-05-01T16:51:19.684Z,6.4
2019-05-01T16:56:25.294Z,6.2
2019-05-01T17:01:31.174Z,6.1
2019-05-01T17:06:39.527Z,6.3
2019-05-01T17:11:44.857Z,6.2
2019-05-01T17:16:50.206Z,6.1
2019-05-01T17:21:59.834Z,6.7
2019-05-01T17:27:05.265Z,8.3
2019-05-01T17:32:15.405Z,7.3
2019-05-01T17:37:11.096Z,8
2019-05-01T17:42:15.145Z,7.1
2019-05-01T17:47:26.742Z,7.1
2019-05-01T17:52:22.230Z,7.4
2019-05-01T17:57:27.100Z,7.5
2019-05-01T18:02:31.997Z,6.5
2019-05-01T18:07:35.888Z,7
2019-05-01T18:12:41.263Z,8.4
2019-05-01T18:17:46.350Z,7
2019-05-01T18:22:54.170Z,7.3
2019-05-01T18:28:00.654Z,9.3
2019-05-01T18:33:07.006Z,11
2019-05-01T18:38:13.777Z,9.3
2019-05-01T18:43:19.860Z,8.3
2019-05-01T18:48:26.095Z,7.9
2019-05-01T18:53:31.804Z,9.7
2019-05-01T18:58:38.056Z,9.6
2019-05-01T19:03:48.290Z,9.7
2019-05-01T19:08:53.668Z,10.4
2019-05-01T19:13:58.682Z,10.7
2019-05-01T19:19:04.984Z,9.9
2019-05-01T19:24:08.652Z,8.6
2019-05-01T19:29:13.725Z,8.3
2019-05-01T19:34:19.344Z,8.1
2019-05-01T19:39:24.392Z,7.8
2019-05-01T19:44:28.003Z,8.4
2019-05-01T19:49:34.133Z,7.8
2019-05-01T19:54:40.432Z,8.7
2019-05-01T19:59:46.803Z,9.3
2019-05-01T20:04:53.388Z,9.9
2019-05-01T20:09:59.068Z,9.7
2019-05-01T20:15:09.156Z,10
2019-05-01T20:20:14.527Z,10.4
2019-05-01T20:25:21.728Z,10.8
2019-05-01T20:30:30.122Z,11.9
2019-05-01T20:35:37.366Z,12.5
2019-05-01T20:40:42.636Z,13.6
2019-05-01T20:45:51.259Z,13.6
2019-05-01T20:50:55.134Z,13.7
2019-05-01T20:56:00.647Z,14.2
2019-05-01T21:01:06.032Z,14.8
2019-05-01T21:06:10.070Z,14.1
2019-05-01T21:11:15.405Z,14.9
2019-05-01T21:16:20.450Z,15.7
2019-05-01T21:21:25.814Z,15.4
2019-05-01T21:26:31.007Z,15.6
2019-05-01T21:31:37.443Z,15.9
2019-05-01T21:36:47.352Z,16.7
2019-05-01T21:41:48.798Z,16.8
2019-05-01T21:46:54.377Z,17.1
2019-05-01T21:51:59.950Z,17
2019-05-01T21:57:07.380Z,17.6
2019-05-01T22:02:12.804Z,17.7
2019-05-01T22:07:17.778Z,18.4
2019-05-01T22:12:27.391Z,18
2019-05-01T22:17:33.436Z,17.9
2019-05-01T22:22:45.846Z,18.7
2019-05-01T22:27:41.508Z,18.4
2019-05-01T22:32:46.540Z,18.7
2019-05-01T22:37:51.742Z,18.8
2019-05-01T22:42:55.403Z,19.2
2019-05-01T22:48:00.442Z,19.3
2019-05-01T22:53:12.921Z,20.1
2019-05-01T22:58:07.099Z,20.5
2019-05-01T23:03:12.165Z,20.6
2019-05-01T23:08:17.606Z,20.6
2019-05-01T23:13:23.911Z,21
2019-05-01T23:18:29.259Z,21.2
2019-05-01T23:23:33.618Z,20.6
2019-05-01T23:28:40.976Z,21.3
2019-05-01T23:33:51.882Z,21.6
2019-05-01T23:38:57.317Z,21.9
2019-05-01T23:44:05.376Z,22
2019-05-01T23:49:10.759Z,21.5
2019-05-01T23:54:15.852Z,21.6
2019-05-01T23:59:21.132Z,22
